Time;durP1;ratioP1;P1;durP2;ratioP2;P2;SDS_P1;SDS_P2;PMS_P1;PMS_P2;Temp;Humidity;BMP_temperature;BMP_pressure;BME280_temperature;BME280_humidity;BME280_pressure;Samples;Min_cycle;Max_cycle;Signal;HPM_P1;HPM_P2
2021/08/21 00:00:27;;;;;;;2.05;1.20;;;25.50;53.20;;;;;;5029347;28;20064;-64
2021/08/21 00:02:53;;;;;;;1.80;1.30;;;25.50;53.20;;;;;;5035806;28;20025;-62
2021/08/21 00:05:18;;;;;;;1.95;1.30;;;25.50;53.20;;;;;;5047472;28;20483;-62
2021/08/21 00:07:45;;;;;;;2.30;1.40;;;25.50;53.20;;;;;;5048779;28;20020;-64
2021/08/21 00:10:12;;;;;;;2.67;1.45;;;25.50;53.20;;;;;;5043012;28;20035;-64
2021/08/21 00:12:38;;;;;;;2.45;1.38;;;25.50;53.20;;;;;;5036167;28;20554;-64
2021/08/21 00:15:06;;;;;;;2.20;1.40;;;25.50;53.30;;;;;;5048698;28;20128;-66
2021/08/21 00:17:32;;;;;;;1.60;1.10;;;25.50;53.20;;;;;;5067675;28;20025;-65
2021/08/21 00:19:57;;;;;;;1.63;1.20;;;25.50;53.20;;;;;;5064301;28;20021;-63
2021/08/21 00:22:23;;;;;;;2.00;1.25;;;25.50;53.20;;;;;;5047728;28;20029;-61
2021/08/21 00:24:48;;;;;;;1.73;1.30;;;25.40;53.20;;;;;;5047640;28;20116;-64
2021/08/21 00:27:14;;;;;;;2.35;1.60;;;25.50;53.20;;;;;;5047554;28;20033;-66
2021/08/21 00:29:40;;;;;;;1.50;1.20;;;25.40;53.10;;;;;;5048584;28;20029;-65
2021/08/21 00:32:06;;;;;;;2.00;1.30;;;25.40;53.10;;;;;;5046011;28;20033;-64
2021/08/21 00:34:32;;;;;;;2.10;1.40;;;25.40;53.10;;;;;;5046420;28;20447;-62
2021/08/21 00:36:58;;;;;;;2.42;1.52;;;25.40;53.20;;;;;;5037032;28;20067;-62
2021/08/21 00:39:24;;;;;;;2.00;1.20;;;25.40;53.20;;;;;;5047280;28;20033;-63
2021/08/21 00:41:49;;;;;;;2.03;1.35;;;25.40;53.20;;;;;;5044189;28;20060;-66
2021/08/21 00:44:15;;;;;;;2.10;1.35;;;25.40;53.20;;;;;;5046334;28;20029;-63
2021/08/21 00:46:59;;;;;;;1.73;1.20;;;25.40;53.20;;;;;;5047863;28;20484;-64
2021/08/21 00:49:25;;;;;;;1.75;1.20;;;25.40;53.20;;;;;;5045540;28;20033;-62
2021/08/21 00:51:51;;;;;;;4.20;1.70;;;25.40;53.10;;;;;;5034270;28;20082;-66
2021/08/21 00:54:17;;;;;;;2.40;1.42;;;25.40;53.10;;;;;;5046253;28;20028;-64
2021/08/21 00:56:42;;;;;;;1.40;1.13;;;25.40;53.10;;;;;;5034543;28;20022;-66
2021/08/21 00:59:11;;;;;;;2.75;1.27;;;25.40;53.20;;;;;;5034783;28;20280;-64
2021/08/21 01:01:37;;;;;;;1.92;1.30;;;25.40;53.20;;;;;;5034191;28;20025;-63
2021/08/21 01:04:04;;;;;;;2.10;1.20;;;25.40;53.20;;;;;;5037253;28;20043;-62
2021/08/21 01:06:30;;;;;;;2.45;1.40;;;25.40;53.20;;;;;;5040888;28;20020;-63
2021/08/21 01:08:55;;;;;;;1.80;1.27;;;25.40;53.20;;;;;;5035271;28;20397;-64
2021/08/21 01:11:21;;;;;;;1.77;1.30;;;25.30;53.10;;;;;;5034332;28;20021;-62
2021/08/21 01:13:47;;;;;;;2.10;1.30;;;25.40;53.20;;;;;;5045047;28;20037;-64
2021/08/21 01:16:13;;;;;;;1.88;1.38;;;25.30;53.10;;;;;;5045157;28;20060;-62
2021/08/21 01:18:39;;;;;;;1.85;1.20;;;25.30;53.10;;;;;;5040229;28;20052;-64
2021/08/21 01:21:05;;;;;;;1.75;1.23;;;25.30;53.10;;;;;;5045722;28;20701;-62
2021/08/21 01:23:30;;;;;;;2.05;1.30;;;25.30;53.10;;;;;;5037989;28;20052;-64
2021/08/21 01:25:56;;;;;;;1.77;1.20;;;25.30;53.10;;;;;;5046401;28;20067;-62
2021/08/21 01:28:22;;;;;;;1.80;1.20;;;25.30;53.10;;;;;;5048339;28;20033;-63
2021/08/21 01:30:47;;;;;;;2.35;1.40;;;25.30;53.10;;;;;;5039102;28;20091;-64
2021/08/21 01:33:13;;;;;;;1.75;1.20;;;25.30;53.10;;;;;;5043398;28;20033;-64
2021/08/21 01:35:39;;;;;;;1.85;1.27;;;25.30;53.10;;;;;;5046834;28;20037;-64
2021/08/21 01:38:04;;;;;;;1.83;1.20;;;25.30;53.10;;;;;;5042545;28;20393;-62
2021/08/21 01:40:30;;;;;;;1.67;1.20;;;25.30;53.10;;;;;;5033516;28;20032;-65
2021/08/21 01:42:56;;;;;;;1.92;1.30;;;25.30;53.10;;;;;;5043002;28;20060;-62
2021/08/21 01:45:22;;;;;;;1.98;1.42;;;25.20;53.10;;;;;;5047561;28;20037;-65
2021/08/21 01:47:47;;;;;;;1.98;1.30;;;25.20;53.10;;;;;;5049646;28;20104;-63
2021/08/21 01:50:18;;;;;;;1.77;1.30;;;25.20;53.10;;;;;;5033592;28;20429;-64
2021/08/21 01:52:46;;;;;;;2.00;1.20;;;25.20;53.10;;;;;;5035629;28;20079;-65
2021/08/21 01:55:12;;;;;;;2.05;1.30;;;25.20;53.10;;;;;;5042594;28;20039;-64
2021/08/21 01:57:40;;;;;;;1.65;1.20;;;25.20;53.10;;;;;;5044955;28;20051;-64
2021/08/21 02:00:06;;;;;;;1.90;1.30;;;25.20;53.60;;;;;;5038385;28;20034;-66
2021/08/21 02:02:32;;;;;;;2.08;1.17;;;25.20;53.10;;;;;;5048589;28;20037;-62
2021/08/21 02:04:58;;;;;;;1.10;1.00;;;25.20;53.10;;;;;;5049618;28;20032;-64
2021/08/21 02:07:23;;;;;;;1.92;1.30;;;25.20;53.10;;;;;;5048721;28;20031;-64
2021/08/21 02:09:49;;;;;;;1.13;1.00;;;25.20;53.10;;;;;;5046409;28;20505;-62
2021/08/21 02:12:17;;;;;;;2.40;1.30;;;25.20;53.10;;;;;;5029681;28;20076;-65
2021/08/21 02:14:44;;;;;;;2.30;1.20;;;25.20;53.00;;;;;;5038951;28;20032;-65
2021/08/21 02:17:10;;;;;;;1.80;1.30;;;25.20;53.10;;;;;;5050269;28;20037;-64
2021/08/21 02:19:36;;;;;;;1.60;1.27;;;25.20;53.00;;;;;;5043139;28;20129;-65
2021/08/21 02:22:04;;;;;;;1.50;1.10;;;25.20;53.10;;;;;;5031410;28;20100;-62
2021/08/21 02:24:30;;;;;;;1.70;1.20;;;25.20;53.10;;;;;;5032674;28;20445;-64
2021/08/21 02:26:59;;;;;;;2.15;1.27;;;25.20;53.10;;;;;;5046539;28;20032;-66
2021/08/21 02:29:26;;;;;;;1.88;1.10;;;25.10;53.10;;;;;;5039777;28;20483;-64
2021/08/21 02:31:55;;;;;;;1.95;1.30;;;25.10;53.00;;;;;;5030207;28;20135;-64
2021/08/21 02:34:24;;;;;;;1.80;1.20;;;25.10;53.00;;;;;;5041094;28;20131;-66
2021/08/21 02:36:50;;;;;;;2.13;1.10;;;25.10;53.00;;;;;;5049019;28;20072;-66
2021/08/21 02:39:16;;;;;;;1.70;1.20;;;25.10;53.00;;;;;;5047454;28;20044;-66
2021/08/21 02:41:42;;;;;;;1.67;1.10;;;25.10;53.00;;;;;;5048667;28;20094;-62
2021/08/21 02:44:07;;;;;;;1.73;1.35;;;25.10;53.00;;;;;;5034153;28;20060;-64
2021/08/21 02:46:33;;;;;;;1.90;1.30;;;25.10;53.00;;;;;;5048403;28;20033;-64
2021/08/21 02:48:59;;;;;;;1.48;1.15;;;25.10;53.00;;;;;;5046866;28;20477;-61
2021/08/21 02:51:25;;;;;;;1.98;1.15;;;25.10;53.00;;;;;;5030609;28;20100;-64
2021/08/21 02:53:50;;;;;;;1.95;1.20;;;25.10;53.10;;;;;;5039556;28;20051;-64
2021/08/21 02:56:16;;;;;;;1.67;1.20;;;25.10;53.10;;;;;;5041682;28;20487;-64
2021/08/21 02:58:42;;;;;;;1.35;1.02;;;25.10;53.00;;;;;;5032612;28;20124;-64
2021/08/21 03:01:07;;;;;;;2.47;1.48;;;25.10;53.10;;;;;;5030830;28;20025;-64
2021/08/21 03:03:33;;;;;;;1.90;1.20;;;25.10;53.10;;;;;;5040759;28;20156;-64
2021/08/21 03:05:59;;;;;;;1.45;1.05;;;25.10;53.10;;;;;;5031707;28;20028;-63
2021/08/21 03:08:24;;;;;;;1.55;1.20;;;25.10;53.10;;;;;;5053128;28;20472;-62
2021/08/21 03:10:50;;;;;;;1.98;1.30;;;25.10;53.10;;;;;;5049695;28;20740;-63
2021/08/21 03:13:15;;;;;;;1.48;1.20;;;25.10;53.10;;;;;;5042257;28;20041;-62
2021/08/21 03:15:41;;;;;;;1.65;1.20;;;25.10;53.10;;;;;;5041931;28;20037;-64
2021/08/21 03:18:07;;;;;;;1.75;1.15;;;25.00;53.00;;;;;;5046489;28;20136;-64
2021/08/21 03:20:34;;;;;;;2.00;1.10;;;25.10;53.10;;;;;;5037952;28;20028;-64
2021/08/21 03:23:00;;;;;;;1.55;1.10;;;25.00;53.00;;;;;;5038268;28;20079;-63
2021/08/21 03:25:26;;;;;;;2.17;1.20;;;25.00;53.00;;;;;;5032100;28;20075;-66
2021/08/21 03:27:51;;;;;;;1.63;1.20;;;25.00;53.10;;;;;;5044097;28;20049;-64
2021/08/21 03:30:17;;;;;;;2.00;1.20;;;25.00;53.00;;;;;;5045403;28;20028;-64
2021/08/21 03:32:43;;;;;;;1.92;1.20;;;25.00;53.00;;;;;;5047559;28;20078;-64
2021/08/21 03:35:09;;;;;;;1.77;1.20;;;25.00;53.00;;;;;;5044869;28;20516;-63
2021/08/21 03:37:35;;;;;;;1.55;1.20;;;25.00;53.10;;;;;;5042636;28;20033;-64
2021/08/21 03:40:00;;;;;;;1.80;1.20;;;25.00;53.10;;;;;;5052310;28;20033;-64
2021/08/21 03:42:26;;;;;;;1.30;1.00;;;25.00;53.10;;;;;;5037195;28;20045;-64
2021/08/21 03:44:52;;;;;;;1.50;1.00;;;25.00;53.10;;;;;;5048156;28;20037;-65
2021/08/21 03:47:18;;;;;;;1.55;1.20;;;25.00;53.10;;;;;;5047657;28;20040;-63
2021/08/21 03:49:43;;;;;;;1.67;1.20;;;24.90;53.00;;;;;;5059404;28;20112;-63
2021/08/21 03:52:09;;;;;;;2.00;1.30;;;24.90;53.10;;;;;;5029148;28;20033;-65
2021/08/21 03:54:35;;;;;;;1.63;1.10;;;24.90;53.10;;;;;;5030940;28;20029;-64
2021/08/21 03:57:00;;;;;;;1.73;1.30;;;24.90;53.10;;;;;;5037111;28;20040;-64
2021/08/21 03:59:26;;;;;;;1.70;1.13;;;24.90;53.10;;;;;;5038375;28;20461;-65
2021/08/21 04:01:51;;;;;;;1.75;1.20;;;24.90;53.10;;;;;;5046327;28;20037;-63
2021/08/21 04:04:17;;;;;;;1.30;1.00;;;24.90;53.10;;;;;;5039341;28;20067;-63
2021/08/21 04:06:43;;;;;;;1.63;1.10;;;24.90;53.10;;;;;;5032341;28;20047;-66
2021/08/21 04:09:09;;;;;;;1.50;1.10;;;24.80;53.00;;;;;;5044984;28;20051;-65
2021/08/21 04:11:34;;;;;;;1.50;1.10;;;24.90;53.10;;;;;;5042786;28;20029;-64
2021/08/21 04:14:00;;;;;;;2.10;1.23;;;24.90;53.10;;;;;;5039572;28;20113;-63
2021/08/21 04:16:26;;;;;;;1.67;1.13;;;24.90;53.10;;;;;;5027426;28;20343;-65
2021/08/21 04:18:52;;;;;;;1.50;1.20;;;24.90;53.10;;;;;;5043770;28;20040;-64
2021/08/21 04:21:18;;;;;;;2.08;1.20;;;24.80;53.10;;;;;;5042226;28;20024;-63
2021/08/21 04:23:43;;;;;;;1.75;1.10;;;24.80;53.00;;;;;;5041932;28;20036;-64
2021/08/21 04:26:09;;;;;;;1.50;1.10;;;24.80;53.00;;;;;;5037124;28;20437;-61
2021/08/21 04:28:35;;;;;;;1.50;1.13;;;24.80;53.00;;;;;;5038989;28;20026;-64
2021/08/21 04:31:00;;;;;;;1.13;0.98;;;24.80;53.00;;;;;;5032009;28;20554;-64
2021/08/21 04:33:26;;;;;;;1.90;1.23;;;24.80;53.10;;;;;;5045543;28;20029;-64
2021/08/21 04:35:52;;;;;;;1.77;1.20;;;24.80;53.00;;;;;;5043512;28;20025;-64
2021/08/21 04:38:19;;;;;;;1.40;1.10;;;24.80;53.10;;;;;;5042690;28;20514;-64
2021/08/21 04:40:47;;;;;;;1.58;1.10;;;24.80;53.00;;;;;;5044891;28;20033;-63
2021/08/21 04:43:14;;;;;;;1.10;1.00;;;24.80;53.00;;;;;;5039023;28;20038;-62
2021/08/21 04:45:39;;;;;;;1.25;1.00;;;24.80;53.10;;;;;;5038548;28;20504;-63
2021/08/21 04:48:05;;;;;;;1.88;1.15;;;24.80;53.00;;;;;;5046293;28;20061;-64
2021/08/21 04:50:31;;;;;;;1.88;1.33;;;24.80;53.10;;;;;;5045799;28;20029;-64
2021/08/21 04:52:56;;;;;;;1.70;1.05;;;24.80;53.00;;;;;;5038115;28;20041;-64
2021/08/21 04:55:22;;;;;;;1.95;1.30;;;24.80;53.00;;;;;;5038419;28;20124;-62
2021/08/21 04:57:50;;;;;;;1.60;1.10;;;24.80;53.10;;;;;;5044017;28;20587;-64
2021/08/21 05:00:16;;;;;;;1.98;1.30;;;24.80;52.70;;;;;;5038943;28;20021;-65
2021/08/21 05:02:41;;;;;;;4.15;1.70;;;24.80;50.70;;;;;;5030905;28;20471;-64
2021/08/21 05:05:07;;;;;;;3.40;1.88;;;24.70;50.10;;;;;;5029418;28;20033;-64
2021/08/21 05:07:33;;;;;;;3.22;1.80;;;24.70;49.00;;;;;;5045951;28;20094;-62
2021/08/21 05:09:58;;;;;;;2.65;1.60;;;24.60;48.40;;;;;;5038824;28;20025;-66
2021/08/21 05:12:24;;;;;;;2.85;1.42;;;24.60;48.70;;;;;;5040429;28;20048;-64
2021/08/21 05:14:50;;;;;;;2.85;1.50;;;24.50;48.50;;;;;;5045680;28;20040;-64
2021/08/21 05:17:15;;;;;;;3.15;1.40;;;24.50;48.60;;;;;;5036000;28;20036;-64
2021/08/21 05:19:48;;;;;;;2.45;1.38;;;24.50;48.50;;;;;;5036748;28;20061;-64
2021/08/21 05:24:49;;;;;;;2.63;1.65;;;24.40;47.90;;;;;;5050625;28;20116;-63
2021/08/21 05:27:15;;;;;;;3.17;1.50;;;24.30;48.10;;;;;;5045399;28;20025;-63
2021/08/21 05:29:41;;;;;;;2.90;1.30;;;24.30;48.30;;;;;;5040906;28;20082;-64
2021/08/21 05:32:07;;;;;;;3.75;1.70;;;24.30;48.50;;;;;;5045292;28;20029;-64
2021/08/21 05:34:33;;;;;;;3.30;1.60;;;24.30;48.50;;;;;;5046994;28;20546;-66
2021/08/21 05:36:58;;;;;;;2.42;1.58;;;24.30;48.50;;;;;;5042867;28;20025;-63
2021/08/21 05:39:24;;;;;;;2.15;1.40;;;24.30;48.70;;;;;;5031747;28;20056;-63
2021/08/21 05:41:50;;;;;;;2.05;1.20;;;24.30;48.70;;;;;;5045724;28;20044;-62
2021/08/21 05:44:16;;;;;;;2.00;1.60;;;24.20;48.80;;;;;;5050118;28;20021;-63
2021/08/21 05:46:41;;;;;;;2.08;1.42;;;24.10;49.00;;;;;;5050893;28;20051;-62
2021/08/21 05:49:07;;;;;;;2.20;1.40;;;24.10;49.30;;;;;;5046671;28;20064;-66
2021/08/21 05:51:32;;;;;;;2.50;1.63;;;24.10;49.60;;;;;;5037101;28;20024;-66
2021/08/21 05:53:58;;;;;;;2.58;1.73;;;24.00;49.80;;;;;;5039385;28;20542;-66
2021/08/21 05:56:24;;;;;;;3.17;1.83;;;24.00;50.10;;;;;;5045058;28;20029;-64
2021/08/21 05:58:50;;;;;;;2.67;1.90;;;23.90;50.30;;;;;;5038411;28;20079;-64
2021/08/21 06:01:15;;;;;;;3.05;1.80;;;23.80;50.40;;;;;;5039251;28;20468;-63
2021/08/21 06:03:41;;;;;;;2.67;1.60;;;23.80;50.70;;;;;;5039685;28;20140;-63
2021/08/21 06:06:13;;;;;;;2.25;1.58;;;23.80;50.80;;;;;;5037944;28;20082;-64
2021/08/21 06:08:40;;;;;;;2.20;1.65;;;23.90;50.90;;;;;;5045091;28;20163;-63
2021/08/21 06:11:06;;;;;;;2.78;1.90;;;23.90;51.50;;;;;;5036991;28;20017;-65
2021/08/21 06:13:32;;;;;;;2.67;1.88;;;23.80;51.00;;;;;;5029750;28;20041;-63
2021/08/21 06:15:59;;;;;;;3.78;1.80;;;23.80;51.00;;;;;;5035862;28;20048;-63
2021/08/21 06:18:25;;;;;;;2.35;1.77;;;23.80;51.20;;;;;;5049803;28;20477;-64
2021/08/21 06:20:51;;;;;;;2.63;1.80;;;23.80;51.30;;;;;;5063136;28;20119;-66
2021/08/21 06:23:16;;;;;;;2.85;1.83;;;23.80;51.40;;;;;;5047265;28;20267;-62
2021/08/21 06:25:42;;;;;;;3.30;2.28;;;23.70;51.40;;;;;;5030808;28;20404;-63
2021/08/21 06:28:08;;;;;;;2.63;2.05;;;23.70;51.50;;;;;;5048160;28;20024;-63
2021/08/21 06:30:33;;;;;;;3.13;1.98;;;23.70;51.60;;;;;;5045324;28;20097;-64
2021/08/21 06:32:59;;;;;;;3.65;2.20;;;23.70;51.80;;;;;;5028959;28;20381;-63
2021/08/21 06:35:25;;;;;;;2.90;2.10;;;23.70;51.90;;;;;;5047603;28;20102;-64
2021/08/21 06:37:50;;;;;;;3.25;2.20;;;23.70;52.00;;;;;;5044401;28;20339;-64
2021/08/21 06:40:16;;;;;;;4.75;2.50;;;23.70;52.30;;;;;;5049418;28;20200;-64
2021/08/21 06:42:42;;;;;;;3.38;2.33;;;23.60;52.40;;;;;;5047125;28;20120;-63
2021/08/21 06:45:08;;;;;;;4.38;2.40;;;23.60;52.60;;;;;;5034670;28;20040;-65
2021/08/21 06:47:34;;;;;;;4.68;2.42;;;23.60;52.80;;;;;;5047209;28;20040;-63
2021/08/21 06:50:01;;;;;;;3.85;2.40;;;23.60;52.90;;;;;;5046105;28;20032;-62
2021/08/21 06:52:26;;;;;;;3.92;2.60;;;23.60;53.20;;;;;;5049611;28;20027;-63
2021/08/21 06:54:52;;;;;;;3.83;2.50;;;23.60;53.30;;;;;;5046082;28;20028;-63
2021/08/21 06:57:18;;;;;;;4.65;2.60;;;23.60;53.40;;;;;;5035297;28;20041;-65
2021/08/21 06:59:43;;;;;;;4.00;2.70;;;23.60;53.50;;;;;;5033561;28;20120;-65
2021/08/21 07:02:09;;;;;;;3.53;2.47;;;23.60;53.70;;;;;;5041862;28;20029;-62
2021/08/21 07:04:34;;;;;;;4.05;2.63;;;23.50;53.80;;;;;;5041302;28;20037;-64
2021/08/21 07:07:00;;;;;;;3.65;2.67;;;23.50;53.90;;;;;;5037497;28;20032;-62
2021/08/21 07:09:26;;;;;;;3.13;2.42;;;23.50;54.10;;;;;;5048611;28;20539;-66
2021/08/21 07:11:52;;;;;;;3.53;2.55;;;23.50;54.20;;;;;;5035645;28;20044;-67
2021/08/21 07:14:18;;;;;;;3.35;2.50;;;23.50;54.50;;;;;;5048560;28;20033;-65
2021/08/21 07:16:43;;;;;;;3.25;2.38;;;23.40;54.50;;;;;;5049602;28;20029;-63
2021/08/21 07:19:09;;;;;;;3.80;2.80;;;23.50;54.60;;;;;;5031102;28;20761;-63
2021/08/21 07:21:35;;;;;;;4.95;2.78;;;23.50;54.80;;;;;;5044028;28;20041;-64
2021/08/21 07:24:00;;;;;;;4.03;2.80;;;23.40;55.10;;;;;;5040026;28;20022;-64
2021/08/21 07:26:26;;;;;;;4.45;2.80;;;23.40;54.90;;;;;;5043429;28;20408;-63
2021/08/21 07:28:52;;;;;;;3.60;2.70;;;23.40;55.30;;;;;;5046979;28;20149;-65
2021/08/21 07:31:17;;;;;;;3.72;2.80;;;23.40;55.30;;;;;;5041146;28;20361;-64
2021/08/21 07:33:43;;;;;;;4.32;2.85;;;23.40;55.20;;;;;;5042367;28;20029;-62
2021/08/21 07:36:09;;;;;;;3.50;3.10;;;23.40;55.40;;;;;;5041370;28;20516;-62
2021/08/21 07:38:35;;;;;;;3.47;2.50;;;23.40;55.60;;;;;;5046475;28;20088;-66
2021/08/21 07:41:00;;;;;;;3.28;2.50;;;23.40;55.60;;;;;;5045472;28;20078;-62
2021/08/21 07:43:26;;;;;;;4.47;2.50;;;23.40;55.60;;;;;;5039140;28;20156;-63
2021/08/21 07:45:52;;;;;;;3.85;2.50;;;23.40;55.50;;;;;;5047744;28;20115;-65
2021/08/21 07:48:18;;;;;;;3.30;2.35;;;23.40;55.50;;;;;;5032350;28;20029;-65
2021/08/21 07:50:44;;;;;;;3.38;2.17;;;23.50;55.40;;;;;;5038440;28;20056;-65
2021/08/21 07:53:11;;;;;;;3.10;2.28;;;23.50;55.40;;;;;;5030766;28;20028;-64
2021/08/21 07:55:36;;;;;;;2.92;2.00;;;23.50;55.30;;;;;;5046029;28;20102;-64
2021/08/21 07:58:04;;;;;;;2.80;1.98;;;23.50;55.20;;;;;;5039376;28;20026;-64
2021/08/21 08:00:30;;;;;;;3.17;2.30;;;23.50;55.20;;;;;;5040722;28;20556;-63
2021/08/21 08:02:56;;;;;;;2.45;2.00;;;23.50;55.10;;;;;;5039708;28;20544;-64
2021/08/21 08:05:22;;;;;;;3.22;2.30;;;23.60;55.00;;;;;;5048093;28;20033;-62
2021/08/21 08:07:47;;;;;;;3.20;2.22;;;23.50;54.90;;;;;;5041204;28;20107;-64
2021/08/21 08:10:13;;;;;;;2.72;2.10;;;23.60;54.90;;;;;;5041151;28;20611;-65
2021/08/21 08:12:39;;;;;;;2.65;1.85;;;23.60;54.90;;;;;;5035068;28;20316;-63
2021/08/21 08:15:05;;;;;;;2.60;2.00;;;23.60;54.80;;;;;;5047306;28;20029;-64
2021/08/21 08:17:31;;;;;;;2.95;2.00;;;23.60;54.70;;;;;;5043688;28;20022;-62
2021/08/21 08:19:56;;;;;;;2.90;2.00;;;23.60;54.70;;;;;;5043138;28;20050;-63
2021/08/21 08:22:23;;;;;;;2.90;2.10;;;23.60;54.70;;;;;;5042058;28;20087;-65
2021/08/21 08:24:49;;;;;;;3.30;2.10;;;23.60;54.60;;;;;;5030677;28;20481;-63
2021/08/21 08:27:15;;;;;;;2.72;2.00;;;23.60;54.60;;;;;;5033736;28;20040;-64
2021/08/21 08:29:41;;;;;;;2.80;1.83;;;23.60;54.50;;;;;;5038517;28;20065;-64
2021/08/21 08:32:07;;;;;;;2.60;1.98;;;23.60;54.50;;;;;;5040625;28;20041;-66
2021/08/21 08:34:33;;;;;;;2.55;1.88;;;23.60;54.50;;;;;;5042873;28;20037;-63
2021/08/21 08:36:58;;;;;;;3.00;1.95;;;23.60;54.50;;;;;;5039904;28;20022;-64
2021/08/21 08:39:24;;;;;;;2.67;2.00;;;23.60;54.40;;;;;;5042606;28;20523;-62
2021/08/21 08:41:51;;;;;;;2.50;1.80;;;23.60;54.40;;;;;;5042181;28;20118;-64
2021/08/21 08:44:20;;;;;;;2.60;1.85;;;23.60;54.40;;;;;;5046833;28;20025;-63
2021/08/21 08:46:46;;;;;;;;;;;23.60;54.30;;;;;;5045604;28;20024;-65
2021/08/21 08:49:12;;;;;;;3.20;2.10;;;23.70;54.30;;;;;;5040055;28;19915;-63
2021/08/21 08:51:38;;;;;;;3.25;1.90;;;23.60;54.30;;;;;;5041351;28;20032;-64
2021/08/21 08:54:03;;;;;;;2.60;1.65;;;23.70;54.30;;;;;;5038919;28;20113;-62
2021/08/21 08:56:29;;;;;;;2.45;1.83;;;23.60;54.20;;;;;;5043871;28;20029;-64
2021/08/21 08:58:55;;;;;;;2.55;1.88;;;23.70;54.20;;;;;;5040244;28;20091;-63
2021/08/21 09:01:20;;;;;;;3.00;1.83;;;23.70;54.20;;;;;;5039909;28;20041;-64
2021/08/21 09:03:46;;;;;;;2.35;1.75;;;23.60;54.20;;;;;;5045394;28;20031;-65
2021/08/21 09:06:13;;;;;;;2.70;1.90;;;23.70;54.20;;;;;;5042517;28;20071;-63
2021/08/21 09:08:40;;;;;;;3.28;1.95;;;23.70;54.20;;;;;;5046500;28;20523;-63
2021/08/21 09:11:23;;;;;;;2.53;1.85;;;23.70;54.20;;;;;;5043779;28;20370;-64
2021/08/21 09:13:50;;;;;;;2.45;1.70;;;23.70;54.20;;;;;;5039388;28;20044;-65
2021/08/21 09:16:26;;;;;;;2.50;1.80;;;23.70;54.10;;;;;;5045476;28;20032;-63
2021/08/21 09:19:20;;;;;;;3.30;1.85;;;23.70;54.10;;;;;;5041755;28;20039;-65
2021/08/21 09:22:05;;;;;;;2.33;1.75;;;23.70;54.10;;;;;;5037526;28;20096;-65
2021/08/21 09:24:32;;;;;;;2.30;1.80;;;23.70;54.10;;;;;;5052350;28;20077;-64
2021/08/21 09:27:23;;;;;;;2.85;1.95;;;23.70;54.10;;;;;;5041014;28;20392;-63
2021/08/21 09:30:03;;;;;;;2.30;1.70;;;23.70;54.10;;;;;;5032590;28;20549;-65
2021/08/21 09:32:29;;;;;;;2.80;1.95;;;23.70;54.10;;;;;;5042754;28;20112;-64
2021/08/21 09:35:05;;;;;;;2.13;1.52;;;23.70;54.10;;;;;;5038293;28;20136;-65
2021/08/21 09:37:53;;;;;;;2.63;1.90;;;23.70;54.10;;;;;;5037204;28;20029;-61
2021/08/21 09:40:34;;;;;;;3.45;1.88;;;23.70;54.10;;;;;;5030556;28;20025;-63
2021/08/21 09:43:02;;;;;;;3.30;1.92;;;23.70;54.20;;;;;;5041565;28;20033;-66
2021/08/21 09:45:28;;;;;;;3.00;1.90;;;23.70;54.10;;;;;;5040866;28;20033;-64
2021/08/21 09:47:59;;;;;;;2.92;1.80;;;23.70;54.10;;;;;;5037712;28;20298;-63
2021/08/21 09:50:25;;;;;;;2.55;1.80;;;23.70;54.10;;;;;;5035158;28;20025;-64
2021/08/21 09:52:51;;;;;;;2.80;2.00;;;23.70;54.10;;;;;;5039808;28;20444;-65
2021/08/21 09:55:20;;;;;;;2.30;1.70;;;23.70;54.60;;;;;;5041586;28;20021;-64
2021/08/21 09:58:16;;;;;;;2.35;1.95;;;23.80;54.20;;;;;;5042590;28;20482;-65
2021/08/21 10:00:43;;;;;;;2.63;1.88;;;23.80;54.20;;;;;;5039899;28;20044;-64
2021/08/21 10:03:09;;;;;;;2.70;1.75;;;23.80;54.20;;;;;;5034563;28;20108;-63
2021/08/21 10:05:35;;;;;;;2.65;1.90;;;23.80;54.20;;;;;;5045384;28;20171;-63
2021/08/21 10:10:36;;;;;;;2.92;1.83;;;23.80;54.30;;;;;;5042906;28;20033;-63
2021/08/21 10:13:24;;;;;;;2.28;1.75;;;23.80;54.30;;;;;;5035738;28;20060;-64
2021/08/21 10:15:50;;;;;;;2.65;1.85;;;23.80;54.30;;;;;;5045869;28;20093;-64
2021/08/21 10:18:19;;;;;;;3.05;1.70;;;23.80;54.30;;;;;;5045083;28;20021;-66
2021/08/21 10:20:45;;;;;;;3.00;1.80;;;23.80;54.30;;;;;;5046780;28;20448;-64
2021/08/21 10:23:16;;;;;;;2.67;1.90;;;23.80;54.30;;;;;;5040417;28;20065;-64
2021/08/21 10:25:54;;;;;;;2.13;1.60;;;23.80;54.30;;;;;;5044991;28;20079;-64
2021/08/21 10:28:21;;;;;;;2.25;1.63;;;23.80;54.30;;;;;;5042474;28;20453;-65
2021/08/21 10:30:49;;;;;;;2.30;1.67;;;23.90;54.30;;;;;;5037706;28;20393;-64
2021/08/21 10:33:16;;;;;;;2.67;1.80;;;23.90;54.30;;;;;;5045974;28;20021;-64
2021/08/21 10:35:55;;;;;;;2.92;1.75;;;23.90;54.30;;;;;;5047027;28;20341;-62
2021/08/21 10:38:30;;;;;;;;;;;23.90;54.40;;;;;;5048892;28;20037;-64
2021/08/21 10:41:01;;;;;;;2.83;1.98;;;23.90;54.30;;;;;;5037044;28;19935;-64
2021/08/21 10:43:50;;;;;;;2.60;1.77;;;23.90;54.30;;;;;;5042863;28;20037;-65
2021/08/21 10:46:31;;;;;;;2.17;1.70;;;23.90;54.30;;;;;;5041199;28;20422;-63
2021/08/21 10:48:57;;;;;;;3.58;1.98;;;23.90;54.30;;;;;;5046026;28;20139;-65
2021/08/21 10:51:40;;;;;;;2.22;1.70;;;23.90;54.30;;;;;;5049116;28;20036;-63
2021/08/21 10:54:24;;;;;;;3.05;2.00;;;23.90;54.30;;;;;;5047361;28;20047;-64
2021/08/21 10:56:51;;;;;;;2.45;1.83;;;23.90;54.30;;;;;;5041867;28;20744;-63
2021/08/21 10:59:41;;;;;;;2.40;1.85;;;23.90;54.30;;;;;;5048133;28;20725;-61
2021/08/21 11:02:39;;;;;;;2.28;1.55;;;23.90;54.30;;;;;;5048586;28;20025;-63
2021/08/21 11:05:05;;;;;;;2.40;1.70;;;23.90;54.20;;;;;;5025242;28;20052;-66
2021/08/21 11:07:33;;;;;;;2.70;1.80;;;23.90;54.20;;;;;;5047022;28;20033;-66
2021/08/21 11:10:37;;;;;;;3.13;1.88;;;24.00;54.30;;;;;;5041160;28;20029;-64
2021/08/21 11:13:03;;;;;;;2.67;1.90;;;24.00;54.30;;;;;;4999888;28;20038;-64
2021/08/21 11:15:32;;;;;;;2.60;1.83;;;24.00;54.30;;;;;;5003639;28;20030;-63
2021/08/21 11:17:58;;;;;;;2.78;2.00;;;23.90;54.20;;;;;;5023115;28;20099;-64
2021/08/21 11:20:28;;;;;;;2.58;1.63;;;23.90;54.20;;;;;;5046073;28;20037;-65
2021/08/21 11:23:06;;;;;;;2.78;1.83;;;24.00;54.20;;;;;;5047363;28;20373;-62
2021/08/21 11:25:39;;;;;;;2.50;1.65;;;24.00;54.30;;;;;;5045677;28;20039;-64
2021/08/21 11:28:10;;;;;;;2.13;1.60;;;24.00;54.20;;;;;;5045626;28;20037;-64
2021/08/21 11:30:37;;;;;;;3.42;2.03;;;24.00;54.20;;;;;;5043048;28;20943;-64
2021/08/21 11:33:09;;;;;;;3.05;1.80;;;24.00;54.20;;;;;;5042532;28;20018;-65
2021/08/21 11:35:48;;;;;;;3.17;1.80;;;24.00;54.20;;;;;;5043026;28;20037;-64
2021/08/21 11:38:35;;;;;;;3.45;2.13;;;24.00;54.20;;;;;;5039060;28;20025;-65
2021/08/21 11:41:12;;;;;;;3.28;1.90;;;24.00;54.20;;;;;;5036609;28;20125;-65
2021/08/21 11:43:41;;;;;;;2.45;1.80;;;24.00;54.20;;;;;;5039933;28;20207;-64
2021/08/21 11:46:07;;;;;;;2.60;1.70;;;24.10;54.20;;;;;;5047157;28;20346;-64
2021/08/21 11:48:36;;;;;;;3.25;1.70;;;24.10;54.20;;;;;;5045354;28;20036;-66
2021/08/21 11:51:03;;;;;;;3.25;1.83;;;24.10;54.20;;;;;;5042614;28;20045;-64
2021/08/21 11:53:42;;;;;;;2.80;1.70;;;24.10;54.20;;;;;;5040896;28;20802;-64
2021/08/21 11:56:08;;;;;;;2.70;1.95;;;24.10;54.20;;;;;;5042219;28;20024;-64
2021/08/21 11:58:35;;;;;;;2.78;1.95;;;24.10;54.20;;;;;;5045930;28;20051;-63
2021/08/21 12:01:11;;;;;;;3.30;1.80;;;24.10;54.10;;;;;;5040494;28;20098;-65
2021/08/21 12:06:10;;;;;;;3.10;1.83;;;24.20;54.10;;;;;;5039448;28;20025;-65
2021/08/21 12:08:35;;;;;;;3.28;1.80;;;24.20;54.20;;;;;;5043370;28;20039;-65
2021/08/21 12:11:03;;;;;;;2.70;1.80;;;24.20;54.20;;;;;;5043107;28;20021;-65
2021/08/21 12:13:39;;;;;;;2.78;1.88;;;24.20;54.20;;;;;;5040903;28;20033;-63
2021/08/21 12:16:09;;;;;;;2.70;2.00;;;24.20;54.30;;;;;;5045763;28;20116;-63
2021/08/21 12:18:36;;;;;;;3.70;2.25;;;24.20;54.30;;;;;;5039704;28;20022;-63
2021/08/21 12:21:04;;;;;;;2.53;1.80;;;24.20;54.30;;;;;;5041458;28;20085;-63
2021/08/21 12:23:30;;;;;;;2.60;1.70;;;24.20;54.30;;;;;;5046088;28;20051;-64
2021/08/21 12:25:59;;;;;;;2.60;1.80;;;24.30;54.30;;;;;;5049764;28;20032;-65
2021/08/21 12:28:33;;;;;;;2.70;1.90;;;24.30;54.80;;;;;;5034146;28;20020;-63
2021/08/21 12:31:10;;;;;;;2.60;1.80;;;24.30;54.30;;;;;;5047751;28;20041;-66
2021/08/21 12:33:38;;;;;;;2.83;1.90;;;24.30;54.30;;;;;;5049456;28;20020;-63
2021/08/21 12:36:22;;;;;;;2.90;2.00;;;24.30;54.30;;;;;;5036568;28;20111;-62
2021/08/21 12:39:05;;;;;;;4.55;2.00;;;24.30;54.30;;;;;;5046750;28;20497;-65
2021/08/21 12:41:45;;;;;;;2.85;1.92;;;24.30;54.20;;;;;;5043587;28;20146;-65
2021/08/21 12:44:14;;;;;;;3.22;1.85;;;24.30;54.20;;;;;;5045134;28;20480;-63
2021/08/21 12:46:54;;;;;;;2.70;1.80;;;24.30;54.20;;;;;;5049524;28;20429;-63
2021/08/21 12:49:31;;;;;;;;;;;24.30;54.20;;;;;;5051476;28;20612;-65
2021/08/21 12:51:59;;;;;;;3.03;1.70;;;24.30;54.20;;;;;;5048272;28;19913;-64
2021/08/21 12:54:36;;;;;;;2.75;1.70;;;24.30;54.20;;;;;;5035038;28;20021;-63
2021/08/21 12:57:19;;;;;;;2.53;1.80;;;24.30;54.20;;;;;;5034009;28;20052;-64
2021/08/21 12:59:46;;;;;;;2.92;1.70;;;24.40;54.20;;;;;;5037601;28;20090;-64